Time;durP1;ratioP1;P1;durP2;ratioP2;P2;SDS_P1;SDS_P2;PMS_P1;PMS_P2;Temp;Humidity;BMP_temperature;BMP_pressure;BME280_temperature;BME280_humidity;BME280_pressure;Samples;Min_cycle;Max_cycle;Signal;HPM_P1;HPM_P2
2023/09/17 00:01:11;;;;;;;;;27.67;24.67;;;;;19.98;100.00;101024.81;5119894;27;45286;-74
2023/09/17 00:03:37;;;;;;;;;27.33;27.33;;;;;19.84;100.00;100994.72;5109124;27;45384;-74
2023/09/17 00:06:03;;;;;;;;;28.67;26.67;;;;;19.85;100.00;100999.97;5122885;27;45269;-74
2023/09/17 00:08:29;;;;;;;;;21.33;18.33;;;;;19.92;100.00;101011.91;5114881;27;45501;-75
2023/09/17 00:10:54;;;;;;;;;29.33;26.33;;;;;19.91;100.00;101015.56;5104917;27;45332;-74
2023/09/17 00:13:19;;;;;;;;;25.33;23.33;;;;;19.89;100.00;101014.84;5123999;27;45412;-74
2023/09/17 00:15:45;;;;;;;;;31.67;27.33;;;;;19.87;100.00;101007.88;5117589;27;45380;-74
2023/09/17 00:18:12;;;;;;;;;32.00;29.00;;;;;19.72;100.00;100984.03;5116039;27;45385;-74
2023/09/17 00:20:37;;;;;;;;;28.33;25.67;;;;;19.81;100.00;101003.03;5115718;27;46307;-74
2023/09/17 00:23:03;;;;;;;;;30.33;29.67;;;;;19.73;100.00;101003.69;5115432;27;45435;-75
2023/09/17 00:25:28;;;;;;;;;28.33;25.33;;;;;19.77;100.00;101005.09;5106348;27;45237;-74
2023/09/17 00:27:53;;;;;;;;;30.33;28.67;;;;;19.77;100.00;101010.47;5108194;27;45422;-74
2023/09/17 00:30:19;;;;;;;;;35.33;31.00;;;;;19.74;100.00;101010.72;5101198;27;45414;-74
2023/09/17 00:32:45;;;;;;;;;26.33;24.33;;;;;19.58;100.00;100984.31;5102927;27;45396;-74
2023/09/17 00:35:11;;;;;;;;;25.67;24.67;;;;;19.63;100.00;100984.75;5102174;27;45474;-74
2023/09/17 00:37:37;;;;;;;;;25.00;25.00;;;;;19.60;100.00;100984.19;5103010;27;45490;-74
2023/09/17 00:40:05;;;;;;;;;26.33;25.67;;;;;19.67;100.00;100998.78;5114413;27;46948;-74
2023/09/17 00:42:30;;;;;;;;;26.00;24.00;;;;;19.68;100.00;101001.34;5120216;27;45355;-74
2023/09/17 00:44:56;;;;;;;;;29.67;26.00;;;;;19.62;100.00;100984.91;5104593;27;45340;-74
2023/09/17 00:47:21;;;;;;;;;23.67;23.33;;;;;19.59;100.00;100994.06;5112519;27;45413;-74
2023/09/17 00:49:47;;;;;;;;;25.00;22.00;;;;;19.62;100.00;101001.88;5106355;27;45332;-74
2023/09/17 00:52:17;;;;;;;;;25.67;25.33;;;;;19.58;100.00;100996.88;5104237;27;45465;-75
2023/09/17 00:54:44;;;;;;;;;29.67;26.00;;;;;19.59;100.00;101007.47;5103664;27;45290;-75
2023/09/17 00:57:11;;;;;;;;;25.00;24.67;;;;;19.54;100.00;100990.03;5108943;27;45598;-74
2023/09/17 00:59:37;;;;;;;;;22.67;22.67;;;;;19.54;100.00;100998.06;5121072;27;47607;-75
2023/09/17 01:02:04;;;;;;;;;31.00;23.67;;;;;19.53;100.00;100993.72;5116035;27;45409;-74
2023/09/17 01:04:30;;;;;;;;;28.67;26.67;;;;;19.47;100.00;100991.53;5106144;27;45355;-74
2023/09/17 01:06:58;;;;;;;;;25.33;22.00;;;;;19.49;100.00;101000.28;5115304;27;45306;-74
2023/09/17 01:09:25;;;;;;;;;16.67;15.67;;;;;19.49;100.00;101003.84;5102715;27;45314;-74
2023/09/17 01:11:51;;;;;;;;;24.00;23.00;;;;;19.37;100.00;100983.31;5109902;27;45422;-74
2023/09/17 01:14:17;;;;;;;;;28.33;24.67;;;;;19.46;100.00;100996.03;5109171;27;45329;-75
2023/09/17 01:16:47;;;;;;;;;29.00;27.67;;;;;19.42;100.00;100996.41;5114070;27;45356;-74
2023/09/17 01:19:26;;;;;;;;;29.67;25.00;;;;;19.44;100.00;101010.53;5103654;27;45440;-74
2023/09/17 01:22:06;;;;;;;;;25.67;24.00;;;;;19.43;100.00;101007.03;5116353;27;45394;-74
2023/09/17 01:24:53;;;;;;;;;22.67;22.67;;;;;19.36;100.00;100995.03;5116460;27;45434;-74
2023/09/17 01:27:19;;;;;;;;;23.00;23.00;;;;;19.31;100.00;100991.00;5103463;27;45440;-74
2023/09/17 01:29:46;;;;;;;;;25.00;24.67;;;;;19.39;100.00;101008.22;5114774;27;45316;-74
2023/09/17 01:32:12;;;;;;;;;26.67;20.67;;;;;19.33;100.00;101000.66;5102210;27;45418;-74
2023/09/17 01:34:40;;;;;;;;;25.33;21.67;;;;;19.34;100.00;101004.19;5119365;27;45411;-74
2023/09/17 01:37:11;;;;;;;;;19.00;19.00;;;;;19.33;100.00;101006.03;5116294;27;45221;-74
2023/09/17 01:39:44;;;;;;;;;27.33;21.00;;;;;19.29;100.00;100998.34;5116822;27;45304;-74
2023/09/17 01:42:10;;;;;;;;;17.67;17.67;;;;;19.30;100.00;101006.28;5114298;27;45407;-74
2023/09/17 01:44:37;;;;;;;;;20.00;20.00;;;;;19.21;100.00;100985.53;5104806;27;45409;-74
2023/09/17 01:47:05;;;;;;;;;22.00;19.33;;;;;19.27;100.00;100996.63;5115064;27;45501;-74
2023/09/17 01:49:32;;;;;;;;;19.33;15.33;;;;;19.24;100.00;101002.22;5105404;27;45403;-74
2023/09/17 01:51:57;;;;;;;;;13.00;13.00;;;;;19.18;100.00;100991.13;5103638;27;45364;-74
2023/09/17 01:54:23;;;;;;;;;17.00;17.00;;;;;19.19;100.00;100996.41;5102068;27;45365;-74
2023/09/17 01:56:49;;;;;;;;;19.33;16.33;;;;;19.20;100.00;101003.47;5101806;27;45346;-74
2023/09/17 01:59:15;;;;;;;;;16.33;16.00;;;;;19.22;100.00;101011.38;5100470;27;47855;-74
2023/09/17 02:01:41;;;;;;;;;19.00;13.67;;;;;19.17;100.00;101001.00;5117599;27;45361;-74
2023/09/17 02:04:07;;;;;;;;;18.00;16.00;;;;;19.16;100.00;100998.47;5110743;27;45394;-74
2023/09/17 02:06:32;;;;;;;;;18.67;16.67;;;;;19.16;100.00;101004.69;5117090;27;45441;-74
2023/09/17 02:08:57;;;;;;;;;21.67;15.33;;;;;19.07;100.00;100986.66;5121043;27;46238;-74
2023/09/17 02:11:23;;;;;;;;;13.67;13.67;;;;;19.15;100.00;101000.28;5105085;27;46773;-74
2023/09/17 02:13:49;;;;;;;;;13.67;12.33;;;;;19.10;100.00;100989.09;5105228;27;45527;-74
2023/09/17 02:16:14;;;;;;;;;16.00;16.00;;;;;19.10;100.00;100989.09;5112693;27;45617;-74
2023/09/17 02:18:39;;;;;;;;;17.67;16.00;;;;;19.07;100.00;100981.28;5114164;27;46490;-74
2023/09/17 02:21:05;;;;;;;;;16.33;14.00;;;;;19.10;100.00;100981.03;5102649;27;45370;-74
2023/09/17 02:23:31;;;;;;;;;16.67;16.67;;;;;19.12;100.00;100994.31;5106128;27;45572;-75
2023/09/17 02:25:57;;;;;;;;;16.33;14.67;;;;;18.97;100.00;100969.59;5122251;27;45494;-74
2023/09/17 02:28:24;;;;;;;;;15.67;13.67;;;;;19.09;100.00;100982.00;5108454;27;45433;-74
2023/09/17 02:30:49;;;;;;;;;18.67;13.33;;;;;19.02;100.00;100962.03;5120731;27;45324;-74
2023/09/17 02:33:14;;;;;;;;;14.67;13.00;;;;;19.03;100.00;100973.59;5103523;27;45346;-74
2023/09/17 02:35:40;;;;;;;;;12.00;11.00;;;;;19.00;100.00;100966.66;5108034;27;46086;-74
2023/09/17 02:38:05;;;;;;;;;16.67;16.67;;;;;18.92;100.00;100957.50;5116679;27;47033;-74
2023/09/17 02:40:31;;;;;;;;;15.67;15.33;;;;;19.01;100.00;100972.88;5108650;27;45362;-74
2023/09/17 02:42:56;;;;;;;;;20.33;16.67;;;;;19.05;100.00;100975.19;5120286;27;45413;-74
2023/09/17 02:45:22;;;;;;;;;15.00;15.00;;;;;19.01;100.00;100971.03;5111196;27;53301;-74
2023/09/17 02:47:47;;;;;;;;;16.67;16.67;;;;;18.98;100.00;100960.56;5106427;27;45420;-74
2023/09/17 02:50:12;;;;;;;;;15.67;15.67;;;;;18.98;100.00;100959.69;5102922;27;45289;-74
2023/09/17 02:52:38;;;;;;;;;20.00;17.33;;;;;19.03;100.00;100977.16;5123496;27;45375;-74
2023/09/17 02:55:04;;;;;;;;;21.33;17.33;;;;;19.03;100.00;100979.81;5114802;27;45244;-74
2023/09/17 02:57:30;;;;;;;;;16.00;12.33;;;;;19.05;100.00;100975.19;5100182;27;46594;-74
2023/09/17 02:59:55;;;;;;;;;19.67;18.33;;;;;19.03;100.00;100970.91;5099613;27;45307;-74
2023/09/17 03:02:20;;;;;;;;;18.67;16.00;;;;;19.03;100.00;100970.91;5112392;27;45525;-75
2023/09/17 03:04:46;;;;;;;;;21.00;20.33;;;;;19.04;100.00;100960.06;5100695;27;45298;-74
2023/09/17 03:07:11;;;;;;;;;20.33;17.67;;;;;18.96;100.00;100954.47;5102161;27;46031;-74
2023/09/17 03:09:38;;;;;;;;;19.00;18.00;;;;;19.02;100.00;100969.22;5113184;27;45317;-74
2023/09/17 03:12:04;;;;;;;;;25.00;22.00;;;;;19.01;100.00;100976.41;5111096;27;45309;-74
2023/09/17 03:14:29;;;;;;;;;17.33;15.67;;;;;18.97;100.00;100966.06;5101522;27;45463;-73
2023/09/17 03:16:55;;;;;;;;;22.67;18.33;;;;;19.02;100.00;100974.56;5116352;27;45581;-73
2023/09/17 03:19:20;;;;;;;;;19.33;18.00;;;;;18.94;100.00;100961.81;5117086;27;45438;-73
2023/09/17 03:21:45;;;;;;;;;18.67;17.33;;;;;18.99;100.00;100964.09;5109317;27;45917;-74
2023/09/17 03:24:11;;;;;;;;;23.33;20.67;;;;;18.93;100.00;100953.88;5101857;27;45408;-73
2023/09/17 03:26:37;;;;;;;;;19.33;18.33;;;;;19.01;100.00;100970.22;5101770;27;45458;-73
2023/09/17 03:29:03;;;;;;;;;17.67;15.00;;;;;18.93;100.00;100952.03;5112752;27;45405;-73
2023/09/17 03:31:28;;;;;;;;;16.33;16.33;;;;;18.97;100.00;100964.22;5100524;27;45576;-74
2023/09/17 03:33:55;;;;;;;;;19.33;16.33;;;;;18.97;100.00;100966.06;5101363;27;45379;-73
2023/09/17 03:36:20;;;;;;;;;19.00;16.33;;;;;18.95;100.00;100962.63;5103762;27;45327;-73
2023/09/17 03:38:46;;;;;;;;;18.00;18.00;;;;;18.96;100.00;100958.97;5100361;27;45625;-73
2023/09/17 03:41:11;;;;;;;;;16.67;16.00;;;;;18.89;100.00;100942.53;5101083;27;45266;-74
2023/09/17 03:43:36;;;;;;;;;16.67;15.00;;;;;18.92;100.00;100947.66;5107489;27;45286;-73
2023/09/17 03:46:04;;;;;;;;;13.67;13.67;;;;;18.98;100.00;100948.97;5105330;27;45899;-74
2023/09/17 03:48:30;;;;;;;;;17.33;16.33;;;;;18.98;100.00;100948.97;5108440;27;45362;-73
2023/09/17 03:50:56;;;;;;;;;16.00;16.00;;;;;18.97;100.00;100955.34;5117261;27;45371;-73
2023/09/17 03:53:21;;;;;;;;;15.33;13.67;;;;;18.95;100.00;100952.75;5103379;27;45561;-73
2023/09/17 03:55:47;;;;;;;;;15.33;15.33;;;;;18.96;100.00;100961.66;5102906;27;46297;-74
2023/09/17 03:58:14;;;;;;;;;20.33;18.00;;;;;18.94;100.00;100948.41;5114820;27;45486;-73
2023/09/17 04:00:42;;;;;;;;;16.67;13.67;;;;;18.85;100.00;100934.88;5123787;27;45386;-73
2023/09/17 04:03:08;;;;;;;;;17.33;15.00;;;;;18.95;100.00;100960.81;5121281;27;45405;-73
2023/09/17 04:05:34;;;;;;;;;16.33;13.67;;;;;18.85;100.00;100945.59;5121562;27;45354;-73
2023/09/17 04:07:59;;;;;;;;;15.00;15.00;;;;;18.95;100.00;100965.31;5115276;27;45396;-72
2023/09/17 04:10:26;;;;;;;;;16.00;13.67;;;;;18.93;100.00;100965.44;5109566;27;45417;-73
2023/09/17 04:12:51;;;;;;;;;14.33;12.00;;;;;18.95;100.00;100965.31;5102609;27;45344;-72
2023/09/17 04:15:18;;;;;;;;;14.33;12.00;;;;;18.91;100.00;100959.38;5110688;27;46190;-73
2023/09/17 04:17:45;;;;;;;;;15.67;13.00;;;;;18.84;100.00;100939.38;5101732;27;45258;-73
2023/09/17 04:20:14;;;;;;;;;12.00;12.00;;;;;18.92;100.00;100954.81;5100172;27;45403;-73
2023/09/17 04:22:43;;;;;;;;;14.00;13.33;;;;;18.86;100.00;100953.50;5110526;27;45459;-73
2023/09/17 04:25:09;;;;;;;;;11.67;9.33;;;;;18.88;100.00;100964.94;5106436;27;46256;-73
2023/09/17 04:27:36;;;;;;;;;14.33;14.33;;;;;18.84;100.00;100955.47;5110892;27;45500;-73
2023/09/17 04:30:05;;;;;;;;;14.67;13.00;;;;;18.85;100.00;100962.50;5101798;27;45224;-73
2023/09/17 04:32:33;;;;;;;;;13.33;12.00;;;;;18.86;100.00;100956.19;5120334;27;45506;-73
2023/09/17 04:34:59;;;;;;;;;11.33;11.33;;;;;18.83;100.00;100953.75;5102297;27;45456;-73
2023/09/17 04:37:24;;;;;;;;;11.00;11.00;;;;;18.82;100.00;100952.03;5103575;27;45399;-73
2023/09/17 04:39:50;;;;;;;;;6.00;6.00;;;;;18.83;100.00;100951.06;5100197;27;45316;-73
2023/09/17 04:42:17;;;;;;;;;15.33;12.00;;;;;18.84;100.00;100947.41;5101247;27;45538;-74
2023/09/17 04:44:42;;;;;;;;;12.00;11.00;;;;;18.83;100.00;100942.16;5098664;27;46103;-73
2023/09/17 04:47:08;;;;;;;;;10.00;10.00;;;;;18.81;100.00;100934.25;5112431;27;45481;-73
2023/09/17 04:49:34;;;;;;;;;10.00;8.33;;;;;18.75;100.00;100924.00;5113215;27;45289;-73
2023/09/17 04:51:59;;;;;;;;;14.00;11.67;;;;;18.88;100.00;100951.53;5109834;27;45491;-74
2023/09/17 04:54:24;;;;;;;;;11.67;11.00;;;;;18.85;100.00;100954.47;5109837;27;47135;-74
2023/09/17 04:56:50;;;;;;;;;13.33;13.00;;;;;18.83;100.00;100948.38;5116193;27;45374;-73
2023/09/17 04:59:15;;;;;;;;;11.00;11.00;;;;;18.90;100.00;100957.66;5108451;27;45357;-74
2023/09/17 05:01:41;;;;;;;;;11.67;10.33;;;;;18.85;100.00;100943.75;5102633;27;45464;-74
2023/09/17 05:04:07;;;;;;;;;15.67;14.33;;;;;18.89;100.00;100957.75;5105952;27;47323;-74
2023/09/17 05:06:32;;;;;;;;;15.00;11.33;;;;;18.86;100.00;100948.13;5115000;27;45352;-73
2023/09/17 05:08:58;;;;;;;;;13.00;13.00;;;;;18.91;100.00;100955.81;5119845;27;45462;-74
2023/09/17 05:11:23;;;;;;;;;14.00;10.00;;;;;18.89;100.00;100961.28;5101660;27;45380;-74
2023/09/17 05:13:49;;;;;;;;;14.33;13.33;;;;;18.92;100.00;100960.19;5097879;27;47373;-74
2023/09/17 05:16:15;;;;;;;;;12.00;12.00;;;;;18.89;100.00;100953.25;5110910;27;45334;-74
2023/09/17 05:18:40;;;;;;;;;12.00;10.33;;;;;18.93;100.00;100953.88;5109233;27;45375;-74
2023/09/17 05:21:06;;;;;;;;;12.00;9.67;;;;;18.87;100.00;100949.84;5108853;27;45545;-73
2023/09/17 05:23:31;;;;;;;;;10.67;9.67;;;;;18.84;100.00;100941.19;5106457;27;46278;-74
2023/09/17 05:25:56;;;;;;;;;12.00;10.33;;;;;18.82;100.00;100946.66;5099090;27;45333;-73
2023/09/17 05:28:23;;;;;;;;;11.67;10.67;;;;;18.79;100.00;100952.28;5107973;27;45220;-74
2023/09/17 05:30:49;;;;;;;;;9.67;8.33;;;;;18.83;100.00;100963.59;5114897;27;45259;-73
2023/09/17 05:33:14;;;;;;;;;10.00;9.00;;;;;18.76;100.00;100955.19;5122675;27;45327;-73
2023/09/17 05:35:39;;;;;;;;;13.33;10.33;;;;;18.70;100.00;100944.97;5105691;27;45647;-74
2023/09/17 05:38:05;;;;;;;;;13.00;13.00;;;;;18.76;100.00;100948.97;5113135;27;45418;-73
2023/09/17 05:40:30;;;;;;;;;14.67;11.33;;;;;18.70;100.00;100947.66;5119623;27;45401;-73
2023/09/17 05:42:58;;;;;;;;;5.00;5.00;;;;;18.72;100.00;100956.41;5125140;27;45357;-74
2023/09/17 05:45:24;;;;;;;;;13.33;11.33;;;;;18.74;100.00;100954.47;5108259;27;45397;-74
2023/09/17 05:47:49;;;;;;;;;14.67;12.67;;;;;18.73;100.00;100958.97;5104959;27;45329;-73
2023/09/17 05:50:15;;;;;;;;;15.00;15.00;;;;;18.65;100.00;100949.84;5118689;27;45585;-74
2023/09/17 05:52:40;;;;;;;;;11.33;10.00;;;;;18.69;100.00;100946.78;5119751;27;46105;-74
2023/09/17 05:55:06;;;;;;;;;12.33;10.67;;;;;18.76;100.00;100951.66;5122092;27;45259;-73
2023/09/17 05:57:32;;;;;;;;;12.33;11.33;;;;;18.79;100.00;100962.13;5121017;27;45472;-74
2023/09/17 05:59:57;;;;;;;;;11.00;9.00;;;;;18.79;100.00;100949.59;5113630;27;45297;-73
2023/09/17 06:02:23;;;;;;;;;11.33;10.67;;;;;18.81;100.00;100952.16;5105315;27;46296;-74
2023/09/17 06:04:52;;;;;;;;;9.00;7.33;;;;;18.69;100.00;100925.34;5107450;27;46668;-73
2023/09/17 06:07:21;;;;;;;;;10.67;8.33;;;;;18.82;100.00;100943.13;5108775;27;45488;-74
2023/09/17 06:09:46;;;;;;;;;8.67;8.00;;;;;18.78;100.00;100939.88;5115287;27;45511;-74
2023/09/17 06:12:12;;;;;;;;;9.67;9.33;;;;;18.80;100.00;100929.00;5119306;27;47228;-73
2023/09/17 06:14:38;;;;;;;;;11.00;9.67;;;;;18.83;100.00;100934.13;5111972;27;45593;-73
2023/09/17 06:17:04;;;;;;;;;12.67;10.67;;;;;18.89;100.00;100950.56;5120778;27;45390;-74
2023/09/17 06:19:30;;;;;;;;;9.33;7.67;;;;;18.89;100.00;100945.22;5110720;27;46882;-74
2023/09/17 06:21:55;;;;;;;;;12.67;10.33;;;;;18.92;100.00;100946.78;5118679;27;45399;-74
2023/09/17 06:24:20;;;;;;;;;11.00;11.00;;;;;18.94;100.00;100948.41;5118613;27;45437;-74
2023/09/17 06:26:46;;;;;;;;;12.67;12.67;;;;;18.97;100.00;100961.56;5111130;27;45471;-74
2023/09/17 06:29:11;;;;;;;;;7.67;6.33;;;;;18.90;100.00;100963.00;5121044;27;45365;-72
2023/09/17 06:31:36;;;;;;;;;11.00;9.33;;;;;18.96;100.00;100958.97;5122096;27;45401;-74
2023/09/17 06:34:02;;;;;;;;;9.67;9.67;;;;;19.00;100.00;100955.94;5118481;27;45373;-74
2023/09/17 06:36:28;;;;;;;;;14.67;10.00;;;;;19.01;100.00;100949.59;5104081;27;45440;-74
2023/09/17 06:38:54;;;;;;;;;14.67;11.67;;;;;19.12;100.00;100964.81;5115818;27;45389;-73
2023/09/17 06:41:19;;;;;;;;;8.00;8.00;;;;;19.09;100.00;100962.38;5105139;27;46102;-74
2023/09/17 06:43:46;;;;;;;;;9.33;9.33;;;;;19.15;100.00;100960.06;5100778;27;49642;-74
2023/09/17 06:46:11;;;;;;;;;14.00;11.33;;;;;19.20;100.00;100957.03;5107774;27;45299;-74
2023/09/17 06:48:36;;;;;;;;;9.33;9.33;;;;;19.22;100.00;100942.50;5121858;27;45571;-73
2023/09/17 06:51:02;;;;;;;;;12.00;11.67;;;;;19.37;100.00;100969.09;5114561;27;56230;-74
2023/09/17 06:53:27;;;;;;;;;15.00;12.00;;;;;19.43;100.00;100968.59;5100946;27;45334;-74
2023/09/17 06:55:53;;;;;;;;;13.00;11.33;;;;;19.48;100.00;100958.34;5107580;27;45353;-74
2023/09/17 06:58:18;;;;;;;;;13.33;10.67;;;;;19.53;100.00;100964.19;5121611;27;45293;-73
2023/09/17 07:00:44;;;;;;;;;17.00;11.67;;;;;19.52;100.00;100949.94;5102968;27;45294;-74
2023/09/17 07:03:10;;;;;;;;;14.00;13.33;;;;;19.65;100.00;100966.72;5101501;27;45417;-74
2023/09/17 07:05:35;;;;;;;;;10.67;10.00;;;;;19.71;100.00;100968.03;5103149;27;45433;-74
2023/09/17 07:08:01;;;;;;;;;12.00;11.00;;;;;19.73;100.00;100969.63;5100970;27;45479;-74
2023/09/17 07:10:26;;;;;;;;;11.67;11.00;;;;;19.77;100.00;100971.06;5112220;27;45422;-74
2023/09/17 07:12:52;;;;;;;;;11.33;11.00;;;;;19.87;100.00;100975.66;5109919;27;45292;-74
2023/09/17 07:15:18;;;;;;;;;15.00;12.67;;;;;19.85;100.00;100959.72;5120494;27;45283;-74
2023/09/17 07:17:44;;;;;;;;;15.67;12.33;;;;;19.91;100.00;100958.34;5114194;27;45432;-75
2023/09/17 07:20:13;;;;;;;;;12.67;12.00;;;;;20.04;100.00;100972.44;5109119;27;45579;-74
2023/09/17 07:22:38;;;;;;;;;15.33;14.00;;;;;20.08;100.00;100965.84;5117099;27;45467;-74
2023/09/17 07:25:04;;;;;;;;;11.00;11.00;;;;;20.15;100.00;100954.47;5115773;27;45315;-75
2023/09/17 07:27:30;;;;;;;;;11.00;10.00;;;;;20.14;100.00;100950.06;5118477;27;45543;-75
2023/09/17 07:29:56;;;;;;;;;11.67;11.67;;;;;20.21;100.00;100955.75;5115016;27;46244;-74
2023/09/17 07:32:25;;;;;;;;;12.33;10.67;;;;;20.15;100.00;100941.03;5103912;27;45353;-74
2023/09/17 07:34:50;;;;;;;;;14.33;11.33;;;;;20.30;100.00;100962.22;5104272;27;45295;-74
2023/09/17 07:37:18;;;;;;;;;9.67;8.00;;;;;20.29;100.00;100955.97;5106702;27;47441;-75
2023/09/17 07:39:45;;;;;;;;;11.67;11.67;;;;;20.27;100.00;100955.28;5110311;27;48100;-75
2023/09/17 07:42:10;;;;;;;;;11.00;11.00;;;;;20.26;100.00;100945.47;5120953;27;45378;-75
2023/09/17 07:44:35;;;;;;;;;12.67;10.67;;;;;20.29;100.00;100965.91;5101423;27;45307;-74
2023/09/17 07:47:01;;;;;;;;;8.67;8.67;;;;;20.37;100.00;100975.00;5112614;27;55657;-75
2023/09/17 07:49:29;;;;;;;;;8.67;7.67;;;;;20.44;100.00;100969.94;5117726;27;45525;-74
2023/09/17 07:51:55;;;;;;;;;8.00;8.00;;;;;20.47;100.00;100975.06;5101132;27;45271;-74
2023/09/17 07:54:21;;;;;;;;;8.33;8.33;;;;;20.50;100.00;100966.72;5112546;27;45392;-73
2023/09/17 07:56:47;;;;;;;;;8.00;7.33;;;;;20.50;100.00;100958.69;5108848;27;45564;-74
2023/09/17 07:59:12;;;;;;;;;12.00;7.00;;;;;20.64;100.00;100963.72;5100215;27;45358;-75
2023/09/17 08:01:37;;;;;;;;;6.67;6.33;;;;;20.71;100.00;100960.34;5113603;27;45290;-74
2023/09/17 08:04:03;;;;;;;;;5.33;5.33;;;;;20.81;100.00;100964.94;5105434;27;45527;-74
2023/09/17 08:06:29;;;;;;;;;7.00;5.67;;;;;20.86;100.00;100968.06;5111529;27;45509;-74
2023/09/17 08:08:54;;;;;;;;;7.33;6.00;;;;;20.94;100.00;100968.25;5111068;27;47324;-74
2023/09/17 08:11:21;;;;;;;;;7.67;6.67;;;;;21.03;100.00;100959.38;5118421;27;45370;-75
2023/09/17 08:13:48;;;;;;;;;9.00;7.00;;;;;21.23;100.00;100980.88;5105993;27;45363;-75
2023/09/17 08:16:13;;;;;;;;;6.00;4.67;;;;;21.37;100.00;100982.31;5118385;27;45409;-74
2023/09/17 08:18:39;;;;;;;;;10.00;6.00;;;;;21.46;100.00;100997.66;5105680;27;46118;-75
2023/09/17 08:21:04;;;;;;;;;5.33;5.33;;;;;21.57;100.00;101007.44;5103978;27;45543;-74
2023/09/17 08:23:30;;;;;;;;;8.00;7.33;;;;;21.58;100.00;100990.31;5100060;27;45328;-74
2023/09/17 08:25:56;;;;;;;;;6.67;5.33;;;;;21.69;100.00;101000.97;5102140;27;45231;-74
2023/09/17 08:28:22;;;;;;;;;8.00;5.33;;;;;21.72;100.00;101006.09;5099687;27;45240;-74
2023/09/17 08:30:48;;;;;;;;;7.00;6.00;;;;;21.78;100.00;101000.13;5109293;27;45307;-74
2023/09/17 08:33:14;;;;;;;;;5.00;5.00;;;;;21.79;100.00;101002.69;5104592;27;45439;-74
2023/09/17 08:35:39;;;;;;;;;5.33;5.33;;;;;21.78;100.00;100986.69;5107856;27;45508;-74
2023/09/17 08:38:05;;;;;;;;;6.33;5.00;;;;;21.70;100.00;100973.03;5111628;27;45461;-75
2023/09/17 08:40:34;;;;;;;;;6.00;6.00;;;;;21.78;100.00;100979.44;5107363;27;45398;-74
2023/09/17 08:43:00;;;;;;;;;5.00;5.00;;;;;21.78;100.00;100990.22;5106383;27;45459;-75
2023/09/17 08:45:27;;;;;;;;;5.00;5.00;;;;;21.79;100.00;100991.09;5114761;27;45240;-73
2023/09/17 08:47:53;;;;;;;;;6.00;5.00;;;;;21.78;100.00;100978.59;5106126;27;46285;-75
2023/09/17 08:50:18;;;;;;;;;5.00;5.00;;;;;21.81;100.00;100967.53;5107163;27;45298;-74
2023/09/17 08:52:48;;;;;;;;;6.33;6.33;;;;;21.87;100.00;100972.38;5117096;27;45363;-74
2023/09/17 08:55:16;;;;;;;;;6.33;6.00;;;;;21.88;100.00;100971.38;5107897;27;45451;-74
2023/09/17 08:57:46;;;;;;;;;5.00;5.00;;;;;21.92;100.00;100969.28;5113205;27;46062;-74
2023/09/17 09:00:15;;;;;;;;;7.00;6.00;;;;;21.91;100.00;100959.50;5115079;27;45388;-74
2023/09/17 09:02:47;;;;;;;;;7.00;6.67;;;;;21.89;100.00;100964.16;5112593;27;45352;-75
2023/09/17 09:05:14;;;;;;;;;6.00;6.00;;;;;21.99;100.00;100975.81;5102574;27;45545;-74
2023/09/17 09:07:42;;;;;;;;;7.67;6.67;;;;;21.93;100.00;100960.19;5101978;27;45281;-74
2023/09/17 09:10:08;;;;;;;;;8.33;6.33;;;;;21.96;100.00;100968.84;5119198;27;45501;-74
2023/09/17 09:12:34;;;;;;;;;5.67;5.67;;;;;21.97;100.00;100975.94;5121753;27;45220;-74
2023/09/17 09:15:00;;;;;;;;;6.00;6.00;;;;;22.05;100.00;100983.34;5105589;27;45229;-74
2023/09/17 09:17:26;;;;;;;;;7.00;7.00;;;;;22.14;100.00;100985.16;5105873;27;46187;-74
2023/09/17 09:19:52;;;;;;;;;6.00;6.00;;;;;22.20;100.00;100966.59;5112755;27;45364;-74
2023/09/17 09:22:18;;;;;;;;;9.67;7.67;;;;;22.30;100.00;100966.59;5115591;27;45565;-75
2023/09/17 09:24:48;;;;;;;;;7.67;5.33;;;;;22.32;100.00;100959.19;5110629;27;45363;-74
2023/09/17 09:27:14;;;;;;;;;7.00;6.00;;;;;22.47;100.00;100963.16;5105643;27;45498;-74
2023/09/17 09:29:42;;;;;;;;;6.00;5.00;;;;;22.50;100.00;100965.56;5104400;27;45360;-74
2023/09/17 09:32:09;;;;;;;;;6.00;5.00;;;;;22.62;100.00;100964.41;5104268;27;45537;-74
2023/09/17 09:34:36;;;;;;;;;6.00;6.00;;;;;22.60;100.00;100961.00;5105009;27;45473;-74
2023/09/17 09:37:04;;;;;;;;;5.00;5.00;;;;;22.71;100.00;100965.38;5104994;27;45415;-75
2023/09/17 09:39:30;;;;;;;;;5.33;5.33;;;;;22.74;100.00;100973.22;5116800;27;45442;-74
2023/09/17 09:41:55;;;;;;;;;7.33;6.33;;;;;22.63;100.00;100949.94;5120868;27;45367;-74
2023/09/17 09:44:24;;;;;;;;;5.00;5.00;;;;;22.76;100.00;100963.97;5108561;27;45427;-74
2023/09/17 09:46:58;;;;;;;;;4.33;4.33;;;;;22.77;100.00;100949.47;5102121;27;46441;-74
2023/09/17 09:49:24;;;;;;;;;5.00;5.00;;;;;22.88;100.00;100943.06;5115438;27;45364;-74
2023/09/17 09:51:49;;;;;;;;;7.00;6.00;;;;;23.05;100.00;100941.44;5113742;27;45603;-74
2023/09/17 09:54:15;;;;;;;;;6.00;6.00;;;;;23.20;100.00;100951.56;5108960;27;45231;-74
2023/09/17 09:56:40;;;;;;;;;6.67;5.67;;;;;23.25;100.00;100946.59;5113522;27;46183;-74
2023/09/17 09:59:06;;;;;;;;;7.33;5.33;;;;;23.44;100.00;100950.19;5106804;27;45323;-74
2023/09/17 10:01:36;;;;;;;;;8.67;7.00;;;;;23.42;100.00;100933.31;5102994;27;45403;-74
2023/09/17 10:04:05;;;;;;;;;6.00;5.00;;;;;23.59;100.00;100929.78;5109706;27;45514;-75
2023/09/17 10:06:31;;;;;;;;;7.00;6.00;;;;;23.71;100.00;100923.16;5113777;27;46680;-74
2023/09/17 10:08:58;;;;;;;;;5.00;4.00;;;;;23.77;98.78;100909.03;5114232;27;45393;-75
2023/09/17 10:11:23;;;;;;;;;8.00;7.67;;;;;23.86;99.32;100903.53;5106611;27;45229;-74
2023/09/17 10:13:53;;;;;;;;;10.33;6.00;;;;;23.94;100.00;100894.69;5104777;27;45330;-75
2023/09/17 10:16:19;;;;;;;;;5.33;5.33;;;;;24.09;95.46;100911.16;5107563;27;46393;-74
2023/09/17 10:18:45;;;;;;;;;6.33;6.33;;;;;24.16;96.90;100898.75;5113565;27;45327;-74
2023/09/17 10:21:14;;;;;;;;;6.33;6.33;;;;;24.22;92.52;100907.09;5109192;27;45347;-74
2023/09/17 10:23:39;;;;;;;;;8.33;7.00;;;;;24.29;92.24;100902.75;5102274;27;45295;-75
2023/09/17 10:26:05;;;;;;;;;8.67;8.67;;;;;24.28;93.03;100895.63;5101098;27;50493;-74
2023/09/17 10:28:34;;;;;;;;;8.00;8.00;;;;;24.30;90.54;100892.78;5123687;27;45342;-74
2023/09/17 10:31:00;;;;;;;;;9.33;8.33;;;;;24.31;95.14;100889.09;5112417;27;45406;-74
2023/09/17 10:33:29;;;;;;;;;12.67;11.33;;;;;24.36;92.94;100892.16;5100967;27;45572;-74
2023/09/17 10:35:57;;;;;;;;;11.00;10.00;;;;;24.40;97.12;100893.53;5103690;27;46671;-74
2023/09/17 10:38:24;;;;;;;;;8.67;7.33;;;;;24.45;93.58;100882.22;5102284;27;45562;-74
2023/09/17 10:40:50;;;;;;;;;10.00;8.00;;;;;24.51;95.18;100874.31;5104125;27;45287;-75
2023/09/17 10:43:17;;;;;;;;;8.67;8.00;;;;;24.51;95.31;100865.38;5104883;27;45656;-74
2023/09/17 10:45:44;;;;;;;;;8.00;8.00;;;;;24.59;89.41;100876.22;5101317;27;46514;-75
2023/09/17 10:48:11;;;;;;;;;8.00;7.33;;;;;24.63;94.81;100875.75;5101531;27;45337;-75
2023/09/17 10:50:38;;;;;;;;;10.67;7.67;;;;;24.54;91.45;100852.38;5104780;27;45472;-74
2023/09/17 10:53:04;;;;;;;;;8.33;6.33;;;;;24.67;89.39;100870.88;5115849;27;45558;-74
2023/09/17 10:55:36;;;;;;;;;10.00;8.33;;;;;24.70;87.88;100863.28;5110678;27;45520;-75
2023/09/17 10:58:27;;;;;;;;;11.67;10.33;;;;;24.74;91.78;100861.09;5115790;27;45375;-74
2023/09/17 11:00:56;;;;;;;;;10.00;8.67;;;;;24.70;89.22;100846.22;5092214;27;45205;-75
2023/09/17 11:03:24;;;;;;;;;11.00;10.00;;;;;24.77;91.58;100858.09;5122541;27;45444;-75